sensor_id;sensor_type;location;lat;lon;timestamp;P1;durP1;ratioP1;P2;durP2;ratioP2
7661;SDS011;30314;48.184;11.510;2024-02-21T00:01:27;3.50;;;1.57;;
7661;SDS011;30314;48.184;11.510;2024-02-21T00:03:54;6.97;;;1.70;;
7661;SDS011;30314;48.184;11.510;2024-02-21T00:06:20;6.17;;;2.47;;
7661;SDS011;30314;48.184;11.510;2024-02-21T00:08:47;3.40;;;1.30;;
7661;SDS011;30314;48.184;11.510;2024-02-21T00:11:13;4.23;;;1.60;;
7661;SDS011;30314;48.184;11.510;2024-02-21T00:13:40;5.00;;;1.60;;
7661;SDS011;30314;48.184;11.510;2024-02-21T00:16:07;5.37;;;1.07;;
7661;SDS011;30314;48.184;11.510;2024-02-21T00:18:34;4.73;;;1.83;;
7661;SDS011;30314;48.184;11.510;2024-02-21T00:21:00;8.23;;;1.93;;
7661;SDS011;30314;48.184;11.510;2024-02-21T00:23:28;2.23;;;1.10;;
7661;SDS011;30314;48.184;11.510;2024-02-21T00:25:55;6.60;;;2.30;;
7661;SDS011;30314;48.184;11.510;2024-02-21T00:28:21;4.70;;;1.97;;
7661;SDS011;30314;48.184;11.510;2024-02-21T00:30:48;6.47;;;2.10;;
7661;SDS011;30314;48.184;11.510;2024-02-21T00:33:16;3.90;;;1.47;;
7661;SDS011;30314;48.184;11.510;2024-02-21T00:35:43;8.57;;;1.60;;
7661;SDS011;30314;48.184;11.510;2024-02-21T00:38:10;3.93;;;1.13;;
7661;SDS011;30314;48.184;11.510;2024-02-21T00:40:37;5.03;;;1.80;;
7661;SDS011;30314;48.184;11.510;2024-02-21T00:43:03;4.40;;;1.47;;
7661;SDS011;30314;48.184;11.510;2024-02-21T00:45:30;4.47;;;1.60;;
7661;SDS011;30314;48.184;11.510;2024-02-21T00:47:56;2.07;;;1.13;;
7661;SDS011;30314;48.184;11.510;2024-02-21T00:50:23;2.97;;;1.67;;
7661;SDS011;30314;48.184;11.510;2024-02-21T00:52:50;6.43;;;1.50;;
7661;SDS011;30314;48.184;11.510;2024-02-21T00:55:16;4.30;;;1.87;;
7661;SDS011;30314;48.184;11.510;2024-02-21T00:57:43;7.27;;;1.77;;
7661;SDS011;30314;48.184;11.510;2024-02-21T01:00:10;6.47;;;1.80;;
7661;SDS011;30314;48.184;11.510;2024-02-21T01:02:37;8.47;;;2.13;;
7661;SDS011;30314;48.184;11.510;2024-02-21T01:05:03;3.73;;;1.80;;
7661;SDS011;30314;48.184;11.510;2024-02-21T01:07:30;9.97;;;1.70;;
7661;SDS011;30314;48.184;11.510;2024-02-21T01:09:57;6.97;;;1.90;;
7661;SDS011;30314;48.184;11.510;2024-02-21T01:12:23;8.27;;;1.93;;
7661;SDS011;30314;48.184;11.510;2024-02-21T01:14:50;2.30;;;1.10;;
7661;SDS011;30314;48.184;11.510;2024-02-21T01:17:16;1.57;;;1.10;;
7661;SDS011;30314;48.184;11.510;2024-02-21T01:19:43;5.00;;;1.73;;
7661;SDS011;30314;48.184;11.510;2024-02-21T01:22:09;7.07;;;1.27;;
7661;SDS011;30314;48.184;11.510;2024-02-21T01:24:36;3.80;;;1.60;;
7661;SDS011;30314;48.184;11.510;2024-02-21T01:27:03;5.93;;;2.30;;
7661;SDS011;30314;48.184;11.510;2024-02-21T01:29:29;4.80;;;1.47;;
7661;SDS011;30314;48.184;11.510;2024-02-21T01:31:56;3.93;;;1.70;;
7661;SDS011;30314;48.184;11.510;2024-02-21T01:34:22;4.43;;;1.27;;
7661;SDS011;30314;48.184;11.510;2024-02-21T01:36:49;2.53;;;1.10;;
7661;SDS011;30314;48.184;11.510;2024-02-21T01:39:15;2.80;;;1.70;;
7661;SDS011;30314;48.184;11.510;2024-02-21T01:41:42;2.07;;;1.30;;
7661;SDS011;30314;48.184;11.510;2024-02-21T01:44:08;5.10;;;1.57;;
7661;SDS011;30314;48.184;11.510;2024-02-21T01:46:35;4.07;;;1.00;;
7661;SDS011;30314;48.184;11.510;2024-02-21T01:49:03;1.87;;;1.30;;
7661;SDS011;30314;48.184;11.510;2024-02-21T01:51:32;4.30;;;1.03;;
7661;SDS011;30314;48.184;11.510;2024-02-21T01:53:59;2.83;;;1.20;;
7661;SDS011;30314;48.184;11.510;2024-02-21T01:56:26;3.07;;;1.60;;
7661;SDS011;30314;48.184;11.510;2024-02-21T01:58:53;4.83;;;1.27;;
7661;SDS011;30314;48.184;11.510;2024-02-21T02:01:22;4.47;;;1.37;;
7661;SDS011;30314;48.184;11.510;2024-02-21T02:03:49;8.20;;;1.93;;
7661;SDS011;30314;48.184;11.510;2024-02-21T02:06:16;5.57;;;1.43;;
7661;SDS011;30314;48.184;11.510;2024-02-21T02:08:43;3.67;;;1.50;;
7661;SDS011;30314;48.184;11.510;2024-02-21T02:11:10;4.13;;;1.80;;
7661;SDS011;30314;48.184;11.510;2024-02-21T02:13:39;2.63;;;1.23;;
7661;SDS011;30314;48.184;11.510;2024-02-21T02:16:06;5.43;;;1.50;;
7661;SDS011;30314;48.184;11.510;2024-02-21T02:18:33;5.63;;;1.30;;
7661;SDS011;30314;48.184;11.510;2024-02-21T02:21:00;4.73;;;1.00;;
7661;SDS011;30314;48.184;11.510;2024-02-21T02:23:30;8.77;;;1.57;;
7661;SDS011;30314;48.184;11.510;2024-02-21T02:25:58;6.30;;;1.27;;
7661;SDS011;30314;48.184;11.510;2024-02-21T02:28:25;1.07;;;0.87;;
7661;SDS011;30314;48.184;11.510;2024-02-21T02:30:52;2.90;;;1.60;;
7661;SDS011;30314;48.184;11.510;2024-02-21T02:33:19;5.00;;;1.83;;
7661;SDS011;30314;48.184;11.510;2024-02-21T02:35:46;3.23;;;1.17;;
7661;SDS011;30314;48.184;11.510;2024-02-21T02:38:12;7.03;;;1.80;;
7661;SDS011;30314;48.184;11.510;2024-02-21T02:40:40;4.70;;;1.53;;
7661;SDS011;30314;48.184;11.510;2024-02-21T02:43:07;1.80;;;0.90;;
7661;SDS011;30314;48.184;11.510;2024-02-21T02:45:34;3.30;;;1.30;;
7661;SDS011;30314;48.184;11.510;2024-02-21T02:48:02;4.13;;;1.07;;
7661;SDS011;30314;48.184;11.510;2024-02-21T02:50:28;4.10;;;0.90;;
7661;SDS011;30314;48.184;11.510;2024-02-21T02:52:55;2.43;;;1.10;;
7661;SDS011;30314;48.184;11.510;2024-02-21T02:55:22;2.93;;;1.10;;
7661;SDS011;30314;48.184;11.510;2024-02-21T02:57:49;1.90;;;0.90;;
7661;SDS011;30314;48.184;11.510;2024-02-21T03:00:15;5.40;;;1.10;;
7661;SDS011;30314;48.184;11.510;2024-02-21T03:02:43;3.30;;;0.93;;
7661;SDS011;30314;48.184;11.510;2024-02-21T03:05:13;2.60;;;0.90;;
7661;SDS011;30314;48.184;11.510;2024-02-21T03:07:41;2.17;;;1.10;;
7661;SDS011;30314;48.184;11.510;2024-02-21T03:10:09;3.80;;;1.60;;
7661;SDS011;30314;48.184;11.510;2024-02-21T03:12:36;7.23;;;1.20;;
7661;SDS011;30314;48.184;11.510;2024-02-21T03:15:03;1.90;;;0.93;;
7661;SDS011;30314;48.184;11.510;2024-02-21T03:17:31;5.57;;;1.37;;
7661;SDS011;30314;48.184;11.510;2024-02-21T03:19:58;2.60;;;1.07;;
7661;SDS011;30314;48.184;11.510;2024-02-21T03:22:26;3.90;;;1.57;;
7661;SDS011;30314;48.184;11.510;2024-02-21T03:24:53;5.60;;;0.90;;
7661;SDS011;30314;48.184;11.510;2024-02-21T03:27:19;6.43;;;1.33;;
7661;SDS011;30314;48.184;11.510;2024-02-21T03:29:46;1.67;;;0.70;;
7661;SDS011;30314;48.184;11.510;2024-02-21T03:32:12;2.50;;;0.93;;
7661;SDS011;30314;48.184;11.510;2024-02-21T03:34:39;2.83;;;0.97;;
7661;SDS011;30314;48.184;11.510;2024-02-21T03:37:05;2.10;;;1.00;;
7661;SDS011;30314;48.184;11.510;2024-02-21T03:39:32;2.63;;;0.80;;
7661;SDS011;30314;48.184;11.510;2024-02-21T03:41:59;3.30;;;1.00;;
7661;SDS011;30314;48.184;11.510;2024-02-21T03:44:31;1.43;;;0.70;;
7661;SDS011;30314;48.184;11.510;2024-02-21T03:46:59;1.53;;;0.80;;
7661;SDS011;30314;48.184;11.510;2024-02-21T03:49:26;2.77;;;1.10;;
7661;SDS011;30314;48.184;11.510;2024-02-21T03:51:53;2.73;;;1.10;;
7661;SDS011;30314;48.184;11.510;2024-02-21T03:54:19;4.43;;;1.23;;
7661;SDS011;30314;48.184;11.510;2024-02-21T03:56:46;7.33;;;0.90;;
7661;SDS011;30314;48.184;11.510;2024-02-21T03:59:16;1.90;;;0.80;;
7661;SDS011;30314;48.184;11.510;2024-02-21T04:01:42;2.37;;;0.77;;
7661;SDS011;30314;48.184;11.510;2024-02-21T04:04:10;3.00;;;1.47;;
7661;SDS011;30314;48.184;11.510;2024-02-21T04:06:45;1.80;;;0.97;;
7661;SDS011;30314;48.184;11.510;2024-02-21T04:09:13;2.20;;;0.90;;
7661;SDS011;30314;48.184;11.510;2024-02-21T04:11:39;2.40;;;0.63;;
7661;SDS011;30314;48.184;11.510;2024-02-21T04:14:06;2.50;;;0.63;;
7661;SDS011;30314;48.184;11.510;2024-02-21T04:16:34;6.53;;;1.40;;
7661;SDS011;30314;48.184;11.510;2024-02-21T04:19:01;2.90;;;0.90;;
7661;SDS011;30314;48.184;11.510;2024-02-21T04:21:28;4.53;;;1.30;;
7661;SDS011;30314;48.184;11.510;2024-02-21T04:23:55;3.63;;;1.00;;
7661;SDS011;30314;48.184;11.510;2024-02-21T04:26:21;6.70;;;0.70;;
7661;SDS011;30314;48.184;11.510;2024-02-21T04:28:48;1.97;;;0.67;;
7661;SDS011;30314;48.184;11.510;2024-02-21T04:31:15;6.47;;;1.20;;
7661;SDS011;30314;48.184;11.510;2024-02-21T04:33:41;3.17;;;1.23;;
7661;SDS011;30314;48.184;11.510;2024-02-21T04:36:08;6.17;;;1.10;;
7661;SDS011;30314;48.184;11.510;2024-02-21T04:38:35;5.33;;;1.07;;
7661;SDS011;30314;48.184;11.510;2024-02-21T04:41:02;4.93;;;1.57;;
7661;SDS011;30314;48.184;11.510;2024-02-21T04:43:28;2.33;;;0.87;;
7661;SDS011;30314;48.184;11.510;2024-02-21T04:45:55;1.90;;;0.67;;
7661;SDS011;30314;48.184;11.510;2024-02-21T04:48:22;3.37;;;0.70;;
7661;SDS011;30314;48.184;11.510;2024-02-21T04:50:48;1.40;;;0.90;;
7661;SDS011;30314;48.184;11.510;2024-02-21T04:53:15;3.70;;;1.10;;
7661;SDS011;30314;48.184;11.510;2024-02-21T04:55:42;1.90;;;0.57;;
7661;SDS011;30314;48.184;11.510;2024-02-21T04:58:09;1.47;;;0.70;;
7661;SDS011;30314;48.184;11.510;2024-02-21T05:00:35;2.53;;;0.70;;
7661;SDS011;30314;48.184;11.510;2024-02-21T05:03:02;2.17;;;0.70;;
7661;SDS011;30314;48.184;11.510;2024-02-21T05:05:47;9.30;;;1.30;;
7661;SDS011;30314;48.184;11.510;2024-02-21T05:08:14;2.43;;;0.90;;
7661;SDS011;30314;48.184;11.510;2024-02-21T05:10:41;1.10;;;0.60;;
7661;SDS011;30314;48.184;11.510;2024-02-21T05:13:08;2.30;;;0.90;;
7661;SDS011;30314;48.184;11.510;2024-02-21T05:15:35;1.43;;;0.80;;
7661;SDS011;30314;48.184;11.510;2024-02-21T05:18:01;4.50;;;0.83;;
7661;SDS011;30314;48.184;11.510;2024-02-21T05:20:28;1.40;;;0.50;;
7661;SDS011;30314;48.184;11.510;2024-02-21T05:22:55;3.00;;;0.70;;
7661;SDS011;30314;48.184;11.510;2024-02-21T05:25:21;3.83;;;0.90;;
7661;SDS011;30314;48.184;11.510;2024-02-21T05:27:50;2.43;;;0.70;;
7661;SDS011;30314;48.184;11.510;2024-02-21T05:30:19;3.13;;;1.13;;
7661;SDS011;30314;48.184;11.510;2024-02-21T05:32:46;1.23;;;0.87;;
7661;SDS011;30314;48.184;11.510;2024-02-21T05:35:13;2.90;;;0.47;;
7661;SDS011;30314;48.184;11.510;2024-02-21T05:37:39;1.50;;;0.77;;
7661;SDS011;30314;48.184;11.510;2024-02-21T05:40:06;1.73;;;0.63;;
7661;SDS011;30314;48.184;11.510;2024-02-21T05:42:33;3.07;;;0.70;;
7661;SDS011;30314;48.184;11.510;2024-02-21T05:44:59;3.47;;;0.70;;
7661;SDS011;30314;48.184;11.510;2024-02-21T05:47:26;5.27;;;1.17;;
7661;SDS011;30314;48.184;11.510;2024-02-21T05:49:53;3.63;;;0.83;;
7661;SDS011;30314;48.184;11.510;2024-02-21T05:52:20;1.70;;;0.80;;
7661;SDS011;30314;48.184;11.510;2024-02-21T05:54:47;1.40;;;0.63;;
7661;SDS011;30314;48.184;11.510;2024-02-21T05:57:17;3.43;;;1.03;;
7661;SDS011;30314;48.184;11.510;2024-02-21T05:59:44;1.23;;;0.47;;
7661;SDS011;30314;48.184;11.510;2024-02-21T06:02:10;5.87;;;1.13;;
7661;SDS011;30314;48.184;11.510;2024-02-21T06:04:37;1.30;;;0.70;;
7661;SDS011;30314;48.184;11.510;2024-02-21T06:07:03;3.33;;;1.73;;
7661;SDS011;30314;48.184;11.510;2024-02-21T06:09:30;1.57;;;0.70;;
7661;SDS011;30314;48.184;11.510;2024-02-21T06:11:58;2.67;;;0.90;;
7661;SDS011;30314;48.184;11.510;2024-02-21T06:14:24;4.77;;;1.43;;
7661;SDS011;30314;48.184;11.510;2024-02-21T06:16:51;3.43;;;0.83;;
7661;SDS011;30314;48.184;11.510;2024-02-21T06:19:17;4.13;;;0.90;;
7661;SDS011;30314;48.184;11.510;2024-02-21T06:21:44;3.33;;;0.80;;
7661;SDS011;30314;48.184;11.510;2024-02-21T06:24:10;0.90;;;0.53;;
7661;SDS011;30314;48.184;11.510;2024-02-21T06:26:39;3.73;;;0.87;;
7661;SDS011;30314;48.184;11.510;2024-02-21T06:29:07;6.43;;;0.67;;
7661;SDS011;30314;48.184;11.510;2024-02-21T06:31:34;2.10;;;0.63;;
7661;SDS011;30314;48.184;11.510;2024-02-21T06:34:02;1.70;;;0.40;;
7661;SDS011;30314;48.184;11.510;2024-02-21T06:36:28;6.73;;;0.90;;
7661;SDS011;30314;48.184;11.510;2024-02-21T06:38:55;6.53;;;0.70;;
7661;SDS011;30314;48.184;11.510;2024-02-21T06:41:22;3.07;;;1.20;;
7661;SDS011;30314;48.184;11.510;2024-02-21T06:43:48;3.33;;;0.73;;
7661;SDS011;30314;48.184;11.510;2024-02-21T06:46:22;1.90;;;1.00;;
7661;SDS011;30314;48.184;11.510;2024-02-21T06:48:53;1.10;;;0.50;;
7661;SDS011;30314;48.184;11.510;2024-02-21T06:51:19;1.13;;;0.63;;
7661;SDS011;30314;48.184;11.510;2024-02-21T06:53:46;2.80;;;1.10;;
7661;SDS011;30314;48.184;11.510;2024-02-21T06:56:13;5.43;;;0.70;;
7661;SDS011;30314;48.184;11.510;2024-02-21T06:58:39;1.97;;;0.70;;
7661;SDS011;30314;48.184;11.510;2024-02-21T07:01:06;2.60;;;0.90;;
7661;SDS011;30314;48.184;11.510;2024-02-21T07:03:33;3.60;;;0.53;;
7661;SDS011;30314;48.184;11.510;2024-02-21T07:06:00;4.37;;;0.70;;
7661;SDS011;30314;48.184;11.510;2024-02-21T07:08:27;1.57;;;0.80;;
7661;SDS011;30314;48.184;11.510;2024-02-21T07:10:54;3.33;;;1.00;;
7661;SDS011;30314;48.184;11.510;2024-02-21T07:13:21;2.87;;;0.97;;
7661;SDS011;30314;48.184;11.510;2024-02-21T07:15:49;2.10;;;1.00;;
7661;SDS011;30314;48.184;11.510;2024-02-21T07:18:15;1.40;;;0.40;;
7661;SDS011;30314;48.184;11.510;2024-02-21T07:20:42;2.50;;;0.70;;
7661;SDS011;30314;48.184;11.510;2024-02-21T07:23:09;2.73;;;0.60;;
7661;SDS011;30314;48.184;11.510;2024-02-21T07:25:35;2.80;;;0.50;;
7661;SDS011;30314;48.184;11.510;2024-02-21T07:28:02;1.70;;;0.80;;
7661;SDS011;30314;48.184;11.510;2024-02-21T07:30:29;2.43;;;0.73;;
7661;SDS011;30314;48.184;11.510;2024-02-21T07:32:55;2.10;;;0.60;;
7661;SDS011;30314;48.184;11.510;2024-02-21T07:35:22;2.07;;;0.70;;
7661;SDS011;30314;48.184;11.510;2024-02-21T07:37:48;1.20;;;0.60;;
7661;SDS011;30314;48.184;11.510;2024-02-21T07:40:16;1.47;;;0.60;;
7661;SDS011;30314;48.184;11.510;2024-02-21T07:42:43;2.37;;;0.93;;
7661;SDS011;30314;48.184;11.510;2024-02-21T07:45:14;1.20;;;0.70;;
7661;SDS011;30314;48.184;11.510;2024-02-21T07:47:40;1.60;;;0.73;;
7661;SDS011;30314;48.184;11.510;2024-02-21T07:50:07;1.97;;;0.80;;
7661;SDS011;30314;48.184;11.510;2024-02-21T07:52:34;8.00;;;1.03;;
7661;SDS011;30314;48.184;11.510;2024-02-21T07:55:01;2.30;;;0.67;;
7661;SDS011;30314;48.184;11.510;2024-02-21T07:57:27;3.13;;;0.57;;
7661;SDS011;30314;48.184;11.510;2024-02-21T07:59:54;1.97;;;0.57;;
7661;SDS011;30314;48.184;11.510;2024-02-21T08:02:20;2.97;;;0.80;;
7661;SDS011;30314;48.184;11.510;2024-02-21T08:04:47;0.93;;;0.50;;
7661;SDS011;30314;48.184;11.510;2024-02-21T08:07:13;2.20;;;0.77;;
7661;SDS011;30314;48.184;11.510;2024-02-21T08:09:40;1.90;;;0.83;;
7661;SDS011;30314;48.184;11.510;2024-02-21T08:12:07;1.80;;;0.77;;
7661;SDS011;30314;48.184;11.510;2024-02-21T08:14:33;1.40;;;0.60;;
7661;SDS011;30314;48.184;11.510;2024-02-21T08:17:00;1.30;;;0.70;;
7661;SDS011;30314;48.184;11.510;2024-02-21T08:19:26;1.30;;;0.47;;
7661;SDS011;30314;48.184;11.510;2024-02-21T08:21:53;2.30;;;0.60;;
7661;SDS011;30314;48.184;11.510;2024-02-21T08:24:20;6.30;;;1.27;;
7661;SDS011;30314;48.184;11.510;2024-02-21T08:26:48;1.40;;;0.40;;
7661;SDS011;30314;48.184;11.510;2024-02-21T08:29:15;1.63;;;0.60;;
7661;SDS011;30314;48.184;11.510;2024-02-21T08:31:42;5.73;;;0.87;;
7661;SDS011;30314;48.184;11.510;2024-02-21T08:34:08;4.20;;;0.60;;
7661;SDS011;30314;48.184;11.510;2024-02-21T08:36:35;2.17;;;0.50;;
7661;SDS011;30314;48.184;11.510;2024-02-21T08:39:03;1.30;;;0.50;;
7661;SDS011;30314;48.184;11.510;2024-02-21T08:41:31;5.03;;;0.73;;
7661;SDS011;30314;48.184;11.510;2024-02-21T08:44:17;4.60;;;0.70;;
7661;SDS011;30314;48.184;11.510;2024-02-21T08:46:43;0.90;;;0.40;;
7661;SDS011;30314;48.184;11.510;2024-02-21T08:49:10;1.40;;;0.90;;
7661;SDS011;30314;48.184;11.510;2024-02-21T08:51:37;3.10;;;0.77;;
7661;SDS011;30314;48.184;11.510;2024-02-21T08:54:04;1.40;;;0.80;;
7661;SDS011;30314;48.184;11.510;2024-02-21T08:56:31;11.67;;;1.33;;
7661;SDS011;30314;48.184;11.510;2024-02-21T08:58:57;2.60;;;0.40;;
7661;SDS011;30314;48.184;11.510;2024-02-21T09:01:25;4.87;;;0.70;;
7661;SDS011;30314;48.184;11.510;2024-02-21T09:03:53;1.33;;;0.60;;
7661;SDS011;30314;48.184;11.510;2024-02-21T09:06:20;2.50;;;0.80;;
7661;SDS011;30314;48.184;11.510;2024-02-21T09:08:47;1.10;;;0.70;;
7661;SDS011;30314;48.184;11.510;2024-02-21T09:11:13;1.57;;;0.40;;
7661;SDS011;30314;48.184;11.510;2024-02-21T09:13:40;1.53;;;0.43;;
7661;SDS011;30314;48.184;11.510;2024-02-21T09:16:07;3.57;;;0.70;;
7661;SDS011;30314;48.184;11.510;2024-02-21T09:18:35;2.40;;;0.73;;
7661;SDS011;30314;48.184;11.510;2024-02-21T09:21:01;2.23;;;0.40;;
7661;SDS011;30314;48.184;11.510;2024-02-21T09:23:28;2.53;;;0.50;;
7661;SDS011;30314;48.184;11.510;2024-02-21T09:25:55;3.10;;;0.40;;
7661;SDS011;30314;48.184;11.510;2024-02-21T09:28:22;0.90;;;0.30;;
7661;SDS011;30314;48.184;11.510;2024-02-21T09:30:49;1.30;;;0.40;;
7661;SDS011;30314;48.184;11.510;2024-02-21T09:33:15;1.97;;;0.80;;
7661;SDS011;30314;48.184;11.510;2024-02-21T09:35:57;0.80;;;0.40;;
7661;SDS011;30314;48.184;11.510;2024-02-21T09:38:24;2.00;;;0.40;;
7661;SDS011;30314;48.184;11.510;2024-02-21T09:41:03;1.97;;;0.53;;
7661;SDS011;30314;48.184;11.510;2024-02-21T09:43:35;0.80;;;0.33;;
7661;SDS011;30314;48.184;11.510;2024-02-21T09:46:04;1.70;;;0.40;;
7661;SDS011;30314;48.184;11.510;2024-02-21T09:51:01;1.00;;;0.37;;
7661;SDS011;30314;48.184;11.510;2024-02-21T09:53:29;1.00;;;0.33;;
7661;SDS011;30314;48.184;11.510;2024-02-21T09:55:57;1.00;;;0.43;;
7661;SDS011;30314;48.184;11.510;2024-02-21T09:58:25;3.90;;;0.70;;
7661;SDS011;30314;48.184;11.510;2024-02-21T10:00:54;2.67;;;0.40;;
7661;SDS011;30314;48.184;11.510;2024-02-21T10:03:20;1.33;;;0.60;;
7661;SDS011;30314;48.184;11.510;2024-02-21T10:05:48;1.10;;;0.50;;
7661;SDS011;30314;48.184;11.510;2024-02-21T10:08:19;1.27;;;0.60;;
7661;SDS011;30314;48.184;11.510;2024-02-21T10:10:46;2.20;;;0.50;;
7661;SDS011;30314;48.184;11.510;2024-02-21T10:13:24;1.67;;;0.63;;
7661;SDS011;30314;48.184;11.510;2024-02-21T10:16:04;1.10;;;0.30;;
7661;SDS011;30314;48.184;11.510;2024-02-21T10:18:32;2.80;;;0.60;;
7661;SDS011;30314;48.184;11.510;2024-02-21T10:21:01;1.07;;;0.43;;
7661;SDS011;30314;48.184;11.510;2024-02-21T10:26:27;3.37;;;0.50;;
7661;SDS011;30314;48.184;11.510;2024-02-21T10:28:54;5.40;;;0.50;;
7661;SDS011;30314;48.184;11.510;2024-02-21T10:31:22;1.73;;;0.70;;
7661;SDS011;30314;48.184;11.510;2024-02-21T10:33:59;1.70;;;0.50;;
7661;SDS011;30314;48.184;11.510;2024-02-21T10:36:30;1.57;;;0.43;;
7661;SDS011;30314;48.184;11.510;2024-02-21T10:38:57;5.07;;;0.43;;
7661;SDS011;30314;48.184;11.510;2024-02-21T10:41:23;2.80;;;0.70;;
7661;SDS011;30314;48.184;11.510;2024-02-21T10:43:51;2.70;;;0.77;;
7661;SDS011;30314;48.184;11.510;2024-02-21T10:46:23;3.20;;;0.60;;
7661;SDS011;30314;48.184;11.510;2024-02-21T10:48:59;3.43;;;0.77;;
7661;SDS011;30314;48.184;11.510;2024-02-21T10:51:33;1.63;;;0.40;;
7661;SDS011;30314;48.184;11.510;2024-02-21T10:56:56;1.53;;;0.50;;
7661;SDS011;30314;48.184;11.510;2024-02-21T10:59:24;2.40;;;0.60;;
7661;SDS011;30314;48.184;11.510;2024-02-21T11:01:52;1.20;;;0.40;;
7661;SDS011;30314;48.184;11.510;2024-02-21T11:04:24;3.03;;;0.50;;
7661;SDS011;30314;48.184;11.510;2024-02-21T11:06:53;1.97;;;0.70;;
7661;SDS011;30314;48.184;11.510;2024-02-21T11:09:28;3.50;;;0.93;;
7661;SDS011;30314;48.184;11.510;2024-02-21T11:11:56;8.23;;;0.73;;
7661;SDS011;30314;48.184;11.510;2024-02-21T11:14:26;2.20;;;0.50;;
7661;SDS011;30314;48.184;11.510;2024-02-21T11:16:54;1.43;;;0.50;;
7661;SDS011;30314;48.184;11.510;2024-02-21T11:19:23;2.40;;;0.40;;
7661;SDS011;30314;48.184;11.510;2024-02-21T11:21:54;1.20;;;0.50;;
7661;SDS011;30314;48.184;11.510;2024-02-21T11:24:40;2.83;;;0.50;;
7661;SDS011;30314;48.184;11.510;2024-02-21T11:27:13;1.43;;;0.43;;
7661;SDS011;30314;48.184;11.510;2024-02-21T11:29:56;2.50;;;0.47;;
7661;SDS011;30314;48.184;11.510;2024-02-21T11:32:23;3.00;;;0.77;;
7661;SDS011;30314;48.184;11.510;2024-02-21T11:34:56;1.10;;;0.40;;
7661;SDS011;30314;48.184;11.510;2024-02-21T11:37:24;2.50;;;0.50;;
7661;SDS011;30314;48.184;11.510;2024-02-21T11:39:57;1.50;;;0.30;;
7661;SDS011;30314;48.184;11.510;2024-02-21T11:42:27;3.07;;;0.60;;
7661;SDS011;30314;48.184;11.510;2024-02-21T11:44:56;1.13;;;0.40;;
7661;SDS011;30314;48.184;11.510;2024-02-21T11:47:23;0.90;;;0.20;;
7661;SDS011;30314;48.184;11.510;2024-02-21T11:49:50;0.90;;;0.23;;
7661;SDS011;30314;48.184;11.510;2024-02-21T11:52:24;1.47;;;0.40;;
7661;SDS011;30314;48.184;11.510;2024-02-21T11:54:53;0.83;;;0.30;;
7661;SDS011;30314;48.184;11.510;2024-02-21T11:57:21;2.07;;;0.60;;
7661;SDS011;30314;48.184;11.510;2024-02-21T11:59:47;0.90;;;0.30;;
7661;SDS011;30314;48.184;11.510;2024-02-21T12:02:16;1.10;;;0.40;;
7661;SDS011;30314;48.184;11.510;2024-02-21T12:04:43;3.43;;;0.30;;
7661;SDS011;30314;48.184;11.510;2024-02-21T12:07:11;4.10;;;0.37;;
7661;SDS011;30314;48.184;11.510;2024-02-21T12:09:38;0.90;;;0.40;;
7661;SDS011;30314;48.184;11.510;2024-02-21T12:12:07;1.20;;;0.70;;
7661;SDS011;30314;48.184;11.510;2024-02-21T12:14:34;5.27;;;0.93;;
7661;SDS011;30314;48.184;11.510;2024-02-21T12:17:02;1.30;;;0.40;;
7661;SDS011;30314;48.184;11.510;2024-02-21T12:19:32;0.87;;;0.40;;
7661;SDS011;30314;48.184;11.510;2024-02-21T12:22:00;0.80;;;0.27;;
7661;SDS011;30314;48.184;11.510;2024-02-21T12:24:28;1.50;;;0.40;;
7661;SDS011;30314;48.184;11.510;2024-02-21T12:26:56;1.20;;;0.60;;
7661;SDS011;30314;48.184;11.510;2024-02-21T12:29:23;1.70;;;0.60;;
7661;SDS011;30314;48.184;11.510;2024-02-21T12:31:51;1.17;;;0.40;;
7661;SDS011;30314;48.184;11.510;2024-02-21T12:34:18;0.90;;;0.40;;
7661;SDS011;30314;48.184;11.510;2024-02-21T12:37:01;3.20;;;0.30;;
7661;SDS011;30314;48.184;11.510;2024-02-21T12:39:28;0.90;;;0.40;;
7661;SDS011;30314;48.184;11.510;2024-02-21T12:41:55;1.20;;;0.30;;
7661;SDS011;30314;48.184;11.510;2024-02-21T12:44:23;0.90;;;0.50;;
7661;SDS011;30314;48.184;11.510;2024-02-21T12:46:50;0.90;;;0.30;;
7661;SDS011;30314;48.184;11.510;2024-02-21T12:49:20;2.70;;;0.53;;
7661;SDS011;30314;48.184;11.510;2024-02-21T12:51:47;0.70;;;0.30;;
7661;SDS011;30314;48.184;11.510;2024-02-21T12:54:13;1.70;;;0.40;;
7661;SDS011;30314;48.184;11.510;2024-02-21T12:56:40;4.20;;;0.30;;
7661;SDS011;30314;48.184;11.510;2024-02-21T12:59:07;1.00;;;0.30;;
7661;SDS011;30314;48.184;11.510;2024-02-21T13:01:36;0.80;;;0.30;;
7661;SDS011;30314;48.184;11.510;2024-02-21T13:04:04;1.47;;;0.30;;
7661;SDS011;30314;48.184;11.510;2024-02-21T13:06:31;1.10;;;0.30;;
7661;SDS011;30314;48.184;11.510;2024-02-21T13:08:58;1.10;;;0.30;;
7661;SDS011;30314;48.184;11.510;2024-02-21T13:11:25;0.80;;;0.30;;
7661;SDS011;30314;48.184;11.510;2024-02-21T13:13:57;0.80;;;0.30;;
7661;SDS011;30314;48.184;11.510;2024-02-21T13:16:24;1.77;;;0.40;;
7661;SDS011;30314;48.184;11.510;2024-02-21T13:18:52;1.00;;;0.40;;
7661;SDS011;30314;48.184;11.510;2024-02-21T13:21:20;0.80;;;0.30;;
7661;SDS011;30314;48.184;11.510;2024-02-21T13:23:46;2.60;;;0.47;;
7661;SDS011;30314;48.184;11.510;2024-02-21T13:26:13;1.87;;;0.60;;
7661;SDS011;30314;48.184;11.510;2024-02-21T13:28:40;7.23;;;0.50;;
7661;SDS011;30314;48.184;11.510;2024-02-21T13:31:07;0.90;;;0.33;;
7661;SDS011;30314;48.184;11.510;2024-02-21T13:33:34;1.53;;;0.60;;
7661;SDS011;30314;48.184;11.510;2024-02-21T13:36:00;0.90;;;0.30;;
7661;SDS011;30314;48.184;11.510;2024-02-21T13:38:28;1.03;;;0.37;;
7661;SDS011;30314;48.184;11.510;2024-02-21T13:40:55;1.33;;;0.40;;
7661;SDS011;30314;48.184;11.510;2024-02-21T13:43:22;1.10;;;0.30;;
7661;SDS011;30314;48.184;11.510;2024-02-21T13:45:55;1.10;;;0.37;;
7661;SDS011;30314;48.184;11.510;2024-02-21T13:48:24;7.33;;;0.60;;
7661;SDS011;30314;48.184;11.510;2024-02-21T13:50:51;1.00;;;0.37;;
7661;SDS011;30314;48.184;11.510;2024-02-21T13:53:18;0.83;;;0.30;;
7661;SDS011;30314;48.184;11.510;2024-02-21T13:55:49;1.00;;;0.40;;
7661;SDS011;30314;48.184;11.510;2024-02-21T13:58:16;1.30;;;0.47;;
7661;SDS011;30314;48.184;11.510;2024-02-21T14:00:43;0.90;;;0.47;;
7661;SDS011;30314;48.184;11.510;2024-02-21T14:03:10;1.53;;;0.40;;
7661;SDS011;30314;48.184;11.510;2024-02-21T14:05:37;1.00;;;0.40;;
7661;SDS011;30314;48.184;11.510;2024-02-21T14:08:08;1.00;;;0.53;;
7661;SDS011;30314;48.184;11.510;2024-02-21T14:10:35;4.07;;;0.40;;
7661;SDS011;30314;48.184;11.510;2024-02-21T14:13:03;1.30;;;0.50;;
7661;SDS011;30314;48.184;11.510;2024-02-21T14:15:30;1.00;;;0.30;;
7661;SDS011;30314;48.184;11.510;2024-02-21T14:17:57;1.73;;;0.40;;
7661;SDS011;30314;48.184;11.510;2024-02-21T14:20:24;1.00;;;0.40;;
7661;SDS011;30314;48.184;11.510;2024-02-21T14:22:51;2.20;;;0.40;;
7661;SDS011;30314;48.184;11.510;2024-02-21T14:25:17;1.13;;;0.40;;
7661;SDS011;30314;48.184;11.510;2024-02-21T14:27:44;2.37;;;0.60;;
7661;SDS011;30314;48.184;11.510;2024-02-21T14:30:10;1.00;;;0.40;;
7661;SDS011;30314;48.184;11.510;2024-02-21T14:32:38;1.17;;;0.30;;
7661;SDS011;30314;48.184;11.510;2024-02-21T14:35:09;2.33;;;0.40;;
7661;SDS011;30314;48.184;11.510;2024-02-21T14:37:36;1.80;;;0.37;;
7661;SDS011;30314;48.184;11.510;2024-02-21T14:40:03;1.17;;;0.40;;
7661;SDS011;30314;48.184;11.510;2024-02-21T14:42:30;0.80;;;0.40;;
7661;SDS011;30314;48.184;11.510;2024-02-21T14:44:57;1.50;;;0.50;;
7661;SDS011;30314;48.184;11.510;2024-02-21T14:47:30;0.70;;;0.30;;
7661;SDS011;30314;48.184;11.510;2024-02-21T14:49:58;3.80;;;0.53;;
7661;SDS011;30314;48.184;11.510;2024-02-21T14:52:25;6.43;;;0.73;;
7661;SDS011;30314;48.184;11.510;2024-02-21T14:54:54;2.70;;;0.37;;
7661;SDS011;30314;48.184;11.510;2024-02-21T14:57:20;2.50;;;0.40;;
7661;SDS011;30314;48.184;11.510;2024-02-21T14:59:47;0.83;;;0.37;;